Celebrity Eclipse — 9HXC9 — position and weather

sailwx.info

Track history (hours):
 
Tides and Currents Weather Stations Pressure Air Temp Water Temp Dewpoint Dewpoint Depression Visibility Wind Speed Wind Dir Waves Ship Positions

Celebrity Eclipse

Last reported at 2018-Jun-25 00:30 UTC. Time now 2018-Jun-25 00:43 UTC.
Position N 59°57' E 030°11'.

Length 317 m; draft 8.8 m.

Type: Passenger vessel. MMSI: 249666000.

Date/timePositionNaut miles runAvg speedWind from/ knotsBaromVisibWave heightAir tempDewpointWater temp
2018-Jun-25 00:30N 59°57' E 030°11'0 0.0
2018-Jun-25 00:00N 59°57' E 030°11'0 0.0
2018-Jun-24 23:28N 59°57' E 030°11'0 0.0
2018-Jun-24 22:57N 59°57' E 030°11'0 0.0
2018-Jun-24 22:29N 59°57' E 030°11'0 0.0
2018-Jun-24 21:58N 59°57' E 030°11'0 0.0
2018-Jun-24 21:30N 59°57' E 030°11'0 0.0
2018-Jun-24 20:59N 59°57' E 030°11'0 0.0
2018-Jun-24 20:27N 59°57' E 030°11'0 0.0
2018-Jun-24 19:59N 59°57' E 030°11'0 0.0
2018-Jun-24 19:28N 59°57' E 030°11'0 0.0
2018-Jun-24 19:00N 59°57' E 030°11'0 0.0
2018-Jun-24 18:30N 59°57' E 030°11'9572663.4
2018-Jun-24 18:09N 50°56' E 006°58'0 0.0
2018-Jun-24 18:00N 50°56' E 006°58'95713568.7
2018-Jun-24 17:56N 59°57' E 030°11'9552232.7
2018-Jun-24 17:30N 50°58' E 006°60'95555457.7
2018-Jun-24 17:29N 59°57' E 030°11'9551976.8
2018-Jun-24 17:00N 50°60' E 006°58'95536963.9
2018-Jun-24 16:59N 59°57' E 030°11'9532010.7
2018-Jun-24 16:30N 51°02' E 006°58'95321318.3
2018-Jun-24 16:28N 59°57' E 030°11'9542096.1
2018-Jun-24 16:00N 51°03' E 006°55'954245245.4
2018-Jun-24 16:00N 59°57' E 030°11'9551924.0
2018-Jun-24 15:30N 51°04' E 006°52'95510257.4
2018-Jun-24 15:25N 59°57' E 030°11'9552343.9
2018-Jun-24 15:00N 51°04' E 006°52'95490426.2
2018-Jun-24 15:00N 59°57' E 030°11'4658.6
2018-Jun-24 15:00N 59°54' E 030°06'9501964.2 1006.2 2.2 14.7 15.7
2018-Jun-24 14:30N 51°02' E 006°58'9537835.9
2018-Jun-24 14:23N 59°57' E 030°11'9552506.5
2018-Jun-24 14:00N 50°58' E 006°60'95269928.4
2018-Jun-24 14:00N 59°54' E 030°06'475.6 060 / 141007.0 5.4 14.3 15.7
2018-Jun-24 13:57N 59°57' E 030°11'9572189.6
2018-Jun-24 13:30N 50°56' E 006°58'957111174.9
2018-Jun-24 13:30N 59°57' E 030°11'9571949.3
2018-Jun-24 13:00N 50°56' E 006°58'95744758.8
2018-Jun-24 12:59N 59°57' E 030°11'9572000.3
2018-Jun-24 12:30N 50°56' E 006°58'9578747.3
2018-Jun-24 12:24N 59°57' E 030°11'9572449.5
2018-Jun-24 12:00N 50°56' E 006°58'95795734.2
2018-Jun-24 12:00N 59°57' E 030°11'9571954.9
2018-Jun-24 11:30N 50°56' E 006°58'957101366.0
2018-Jun-24 11:30N 59°57' E 030°11'9571919.0
2018-Jun-24 11:00N 50°56' E 006°58'95732823.1
2018-Jun-24 10:58N 59°57' E 030°11'9571963.8
2018-Jun-24 10:29N 50°56' E 006°58'95774922.4
2018-Jun-24 10:28N 59°57' E 030°11'9572071.2
2018-Jun-24 10:00N 50°56' E 006°58'95710975.9
2018-Jun-24 09:55N 59°57' E 030°11'9572320.8
2018-Jun-24 09:30N 50°56' E 006°58'957492347.3
2018-Jun-24 09:30N 59°57' E 030°11'9571920.0
2018-Jun-24 09:00N 50°56' E 006°58'95723286.8
2018-Jun-24 08:58N 59°57' E 030°11'9572086.2
2018-Jun-24 08:30N 50°56' E 006°58'95723130.5
2018-Jun-24 08:28N 59°57' E 030°11'9572087.5
2018-Jun-24 08:00N 50°56' E 006°58'95731618.7
2018-Jun-24 07:59N 59°57' E 030°11'9572039.3
2018-Jun-24 07:30N 50°56' E 006°58'95733138.7
2018-Jun-24 07:29N 59°57' E 030°11'9572042.9
2018-Jun-24 07:01N 50°56' E 006°58'95721014.8
2018-Jun-24 06:58N 59°57' E 030°11'0 0.0
2018-Jun-24 06:30N 59°57' E 030°11'9571723214.5
2018-Jun-24 06:30N 50°56' E 006°58'0 0.0
2018-Jun-24 06:00N 50°56' E 006°58'957574405.0
2018-Jun-24 06:00N 59°57' E 030°11'9571930.8
2018-Jun-24 05:31N 50°56' E 006°58'95733460.6
2018-Jun-24 05:29N 59°57' E 030°11'9572020.2
2018-Jun-24 05:00N 50°56' E 006°58'957492349.0
2018-Jun-24 05:00N 59°57' E 030°11'9561918.6
2018-Jun-24 04:30N 50°58' E 006°60'95621910.7
2018-Jun-24 04:28N 59°57' E 030°11'0 0.0
2018-Jun-24 04:01N 59°57' E 030°11'954381712.1
2018-Jun-24 04:00N 51°01' E 006°58'3 6.2
2018-Jun-24 03:30N 51°03' E 006°55'954107310.3
2018-Jun-24 03:30N 59°57' E 030°11'9541941.2
2018-Jun-24 03:00N 51°05' E 006°51'950244269.9
2018-Jun-24 03:00N 59°56' E 030°03'9481901.6
2018-Jun-24 02:30N 51°08' E 006°51'945103039.8
2018-Jun-24 02:30N 59°56' E 029°54'9441934.7
2018-Jun-24 02:00N 51°09' E 006°50'9411694200.5
2018-Jun-24 02:00N 59°59' E 029°46'9411885.1
2018-Jun-24 01:30N 51°11' E 006°48'93747505.4
2018-Jun-24 01:29N 60°01' E 029°35'9381951.3
2018-Jun-24 01:00N 51°12' E 006°44'93311382.6
2018-Jun-24 00:55N 60°02' E 029°24'9312227.9
2018-Jun-24 00:30N 51°14' E 006°46'925114782.9
2018-Jun-24 00:30N 60°02' E 029°10'815.8
2018-Jun-24 00:00N 60°02' E 028°55'917550116.8
2018-Jun-24 00:00N 51°15' E 006°46'9101829.7
2018-Jun-23 23:31N 60°02' E 028°39'910327589.9
2018-Jun-23 23:30N 51°14' E 006°46'9041814.2
2018-Jun-23 23:00N 60°04' E 028°24'90470746.7
2018-Jun-23 23:00N 51°14' E 006°46'9001838.0
2018-Jun-23 22:30N 60°08' E 028°11'90087577.2
2018-Jun-23 22:30N 51°14' E 006°46'8941837.5
2018-Jun-23 22:01N 60°10' E 027°56'894402421.9
2018-Jun-23 22:00N 51°14' E 006°46'8881783.0
2018-Jun-23 21:31N 60°09' E 027°42'888355017.1
2018-Jun-23 21:30N 51°14' E 006°46'2 3.6
2018-Jun-23 21:00N 51°15' E 006°45'879137576.5
2018-Jun-23 21:00N 60°05' E 027°28'8801791.3
2018-Jun-23 20:31N 51°14' E 006°44'8723140440.4
2018-Jun-23 20:31N 60°01' E 027°15'815.5
2018-Jun-23 20:01N 59°58' E 027°01'866389580.9
2018-Jun-23 20:00N 51°11' E 006°46'8591726.6
2018-Jun-23 19:31N 59°59' E 026°46'860386896.6
2018-Jun-23 19:30N 51°12' E 006°44'8531712.8
2018-Jun-23 19:01N 59°58' E 026°30'851340386.5
2018-Jun-23 19:00N 51°14' E 006°44'8431694.6
2018-Jun-23 18:31N 59°56' E 026°15'842433160.8
2018-Jun-23 18:30N 51°14' E 006°46'8341664.3
2018-Jun-23 18:00N 59°54' E 025°60'834300415.2
2018-Jun-23 18:00N 51°14' E 006°46'0 0.0
2018-Jun-23 17:30N 51°14' E 006°46'827425217.7
2018-Jun-23 17:30N 59°52' E 025°44'815.2
2018-Jun-23 17:00N 59°54' E 025°29'821985153.3
2018-Jun-23 17:00N 51°14' E 006°46'8161640.6
2018-Jun-23 16:31N 59°57' E 025°15'81668332.1
2018-Jun-23 16:30N 51°14' E 006°46'8111662.6
2018-Jun-23 16:01N 59°60' E 025°00'811417321.9
2018-Jun-23 16:00N 51°14' E 006°46'0 0.0
2018-Jun-23 15:31N 51°14' E 006°46'1 2.9
2018-Jun-23 15:00N 51°15' E 006°45'81486170.6
2018-Jun-23 15:00N 60°09' E 024°55'8141627.7
2018-Jun-23 14:30N 51°17' E 006°42'81414649.6
2018-Jun-23 14:27N 60°09' E 024°55'8111855.6
2018-Jun-23 14:00N 51°19' E 006°44'81164906.2
2018-Jun-23 14:00N 60°09' E 024°55'33583.9
2018-Jun-23 14:00N 60°06' E 024°54'3 6.0 220 / 171010.0 5.4 14.1 11.0
2018-Jun-23 13:30N 60°09' E 024°55'81213175.4
2018-Jun-23 13:26N 51°18' E 006°43'4 8.3
2018-Jun-23 13:01N 51°15' E 006°46'81424417.1
2018-Jun-23 12:59N 60°09' E 024°55'8141743.2
2018-Jun-23 12:30N 51°14' E 006°46'81417146.4
2018-Jun-23 12:28N 60°09' E 024°55'8141796.6
2018-Jun-23 12:00N 51°14' E 006°46'81417452.6
2018-Jun-23 11:58N 60°09' E 024°55'8141801.0
2018-Jun-23 11:31N 51°14' E 006°46'81417046.8
2018-Jun-23 11:28N 60°09' E 024°55'0 0.0
2018-Jun-23 11:00N 60°09' E 024°55'814266341.5
2018-Jun-23 11:00N 51°15' E 006°46'0 0.0
2018-Jun-23 10:30N 51°15' E 006°46'81456341.5
2018-Jun-23 10:30N 60°09' E 024°55'8141599.2
2018-Jun-23 09:59N 51°15' E 006°46'81415501.4
2018-Jun-23 09:56N 60°09' E 024°55'8141921.3
2018-Jun-23 09:30N 51°15' E 006°46'81422538.2
2018-Jun-23 09:28N 60°09' E 024°55'8171765.9
2018-Jun-23 09:00N 51°11' E 006°45'817122586.0
2018-Jun-23 09:00N 60°09' E 024°55'8151640.0
2018-Jun-23 08:30N 51°10' E 006°51'81543814.9
2018-Jun-23 08:29N 60°09' E 024°55'8191705.7
2018-Jun-23 08:00N 51°05' E 006°51'81919401.9
2018-Jun-23 07:58N 60°09' E 024°55'8191786.9
2018-Jun-23 07:30N 51°00' E 006°58'81956732.6
2018-Jun-23 07:29N 60°09' E 024°55'0 0.0
2018-Jun-23 07:00N 60°09' E 024°55'823423140.3
2018-Jun-23 07:00N 50°56' E 006°58'8221656.7
2018-Jun-23 06:30N 60°09' E 024°54'510.0
2018-Jun-23 06:00N 60°04' E 024°54'611.1
2018-Jun-23 05:31N 59°58' E 024°57'816.8
2018-Jun-23 05:00N 59°51' E 024°50'815.9
2018-Jun-23 04:31N 59°45' E 024°38'917.0
2018-Jun-23 04:00N 59°44' E 024°22'816.9
2018-Jun-23 03:31N 59°41' E 024°06'917.2
2018-Jun-23 03:01N 59°39' E 023°50'4213.9
2018-Jun-23 03:00N 59°36' E 023°54'1021.6 240 / 151006.9 5.4 13.0 12.5
2018-Jun-23 02:30N 59°36' E 023°33'917.2
2018-Jun-23 02:01N 59°33' E 023°17'5285.8
2018-Jun-23 02:00N 59°30' E 023°24'1224.2 220 / 151006.6 5.4 13.0 11.5
2018-Jun-23 01:30N 59°31' E 023°01'918.2
2018-Jun-23 01:00N 59°24' E 022°48'449.0 230 / 181006.9 5.4 13.1 12.0
2018-Jun-23 00:55N 59°27' E 022°42'4322.4
2018-Jun-22 23:00N 59°00' E 021°36'699484.1 230 / 181007.0 2.2 13.013.012.8
2018-Jun-22 21:33N 50°56' E 006°58'0 0.1
2018-Jun-22 21:30N 50°56' E 006°58'2 4.0
2018-Jun-22 21:01N 50°58' E 006°60'2 4.8
2018-Jun-22 20:30N 50°60' E 006°58'1 2.4
2018-Jun-22 20:00N 51°01' E 006°58'4 7.2
2018-Jun-22 19:30N 50°58' E 006°59'3 6.9
2018-Jun-22 19:00N 50°54' E 006°59'2 4.7
2018-Jun-22 18:30N 50°56' E 006°58'6201203.2
2018-Jun-22 18:00N 57°54' E 020°06'2914.4 270 / 131008.010.8 15.7 13.4
2018-Jun-22 16:00N 57°30' E 019°36'227226.9 230 / 241007.7 5.4 15.8 14.5
2018-Jun-22 15:00N 60°06' E 024°54'0 0.0 260 / 201007.9 5.4 15.1 14.7
2018-Jun-22 14:00N 60°06' E 024°54'37662.7 290 / 141008.4 5.4 14.714.711.9
2018-Jun-22 08:00N 55°48' E 016°18'2014.7 260 / 241007.0 5.4 15.815.813.0
2018-Jun-22 06:37N 55°42' E 015°44'918.2
2018-Jun-22 06:07N 55°38' E 015°29'219.7
2018-Jun-22 06:00N 55°37' E 015°25'1019.5
2018-Jun-22 05:29N 55°33' E 015°09'919.4
2018-Jun-22 05:01N 55°28' E 014°55'1019.0
2018-Jun-22 04:30N 55°24' E 014°40'918.9
2018-Jun-22 04:01N 55°17' E 014°29'918.9
2018-Jun-22 03:31N 55°09' E 014°19'1019.1
2018-Jun-22 03:01N 55°02' E 014°08'11678.3
2018-Jun-22 03:00N 54°54' E 013°54'2221.6 300 / 251009.8 5.4 13.413.415.4
2018-Jun-22 02:00N 54°48' E 013°18'2112.4 290 / 251010.1 2.2 13.413.417.5
2018-Jun-22 00:17N 54°44' E 012°42'1619.7
2018-Jun-21 23:28N 54°35' E 012°18'920.4
2018-Jun-21 23:01N 54°27' E 012°12'5288.0
2018-Jun-21 23:00N 54°30' E 012°18'2019.9 290 / 401012.0 5.4 13.013.016.0
2018-Jun-21 22:00N 54°12' E 012°05'1 3.1
2018-Jun-21 21:31N 54°10' E 012°06'270188.4
2018-Jun-21 20:05N 50°56' E 006°58'0 0.1
2018-Jun-21 20:00N 50°56' E 006°58'1 1.2
2018-Jun-21 19:30N 50°57' E 006°58'4 7.7
2018-Jun-21 19:00N 50°54' E 007°02'26519435.4
2018-Jun-21 19:00N 54°06' E 012°00'265537.6 300 / 211013.010.8 11.9 18.7
2018-Jun-21 18:30N 50°54' E 006°59'2 4.7
2018-Jun-21 18:00N 50°56' E 006°58'0 0.0
2018-Jun-21 17:30N 50°56' E 006°58'0 0.0
2018-Jun-21 17:00N 50°56' E 006°58'26416986.1
2018-Jun-21 17:00N 54°06' E 012°00'265546.6 310 / 251013.7 2.2 11.1 18.7
2018-Jun-21 16:30N 50°55' E 006°58'1 2.1
2018-Jun-21 16:00N 50°56' E 006°58'270867.2
2018-Jun-21 15:42N 54°10' E 012°06'2701384.3
2018-Jun-21 15:30N 50°56' E 006°58'1 2.4
2018-Jun-21 15:00N 50°55' E 006°58'26518336.1
2018-Jun-21 15:00N 54°06' E 012°00'264547.0 310 / 101011.0 5.4 11.4 18.9
2018-Jun-21 14:31N 50°56' E 006°58'2704371.0
2018-Jun-21 14:27N 54°10' E 012°06'270614.9
2018-Jun-21 14:01N 50°56' E 006°58'2 3.4
2018-Jun-21 13:30N 50°55' E 006°59'2 3.3
2018-Jun-21 13:00N 50°56' E 006°58'2705609.2
2018-Jun-21 12:57N 54°10' E 012°06'270615.3
2018-Jun-21 12:31N 50°56' E 006°58'2704332.1
2018-Jun-21 12:27N 54°10' E 012°06'270615.3
2018-Jun-21 12:00N 50°55' E 006°58'26517027.9
2018-Jun-21 12:00N 54°06' E 012°00'264545.7 270 / 101009.3 5.4 15.6 19.0
2018-Jun-21 11:30N 50°56' E 006°58'0 0.0
2018-Jun-21 11:00N 50°56' E 006°58'270656.5
2018-Jun-21 10:36N 54°10' E 012°06'2703022.8
2018-Jun-21 10:30N 50°55' E 006°59'2702451.8
2018-Jun-21 10:24N 54°10' E 012°06'270691.1
2018-Jun-21 10:00N 50°56' E 006°58'27026952.0
2018-Jun-21 10:00N 54°10' E 012°06'270550.0
2018-Jun-21 09:30N 50°56' E 006°58'0 0.0
2018-Jun-21 09:00N 50°56' E 006°58'0 0.1
2018-Jun-21 08:30N 50°56' E 006°58'270253.6
2018-Jun-21 07:26N 54°10' E 012°06'0 0.0
2018-Jun-21 06:56N 54°10' E 012°06'0 0.6
2018-Jun-21 06:29N 54°11' E 012°06'2014.9
2018-Jun-21 05:08N 54°24' E 011°40'320.3
2018-Jun-21 05:00N 54°26' E 011°36'7482.4
2018-Jun-21 05:00N 54°24' E 011°24'714.9 320 / 231011.2 2.2 15.3 17.8
2018-Jun-21 04:31N 54°31' E 011°22'1019.7
2018-Jun-21 04:01N 54°36' E 011°07'11663.4
2018-Jun-21 04:00N 54°36' E 010°48'611.7 320 / 221011.9 1.1 15.0 16.0
2018-Jun-21 03:31N 54°41' E 010°53'917.7
2018-Jun-21 03:00N 54°50' E 010°52'3175.8
2018-Jun-21 03:00N 54°48' E 010°48'1122.9 290 / 241011.7 5.4 15.2 17.1
2018-Jun-21 02:31N 54°57' E 010°58'918.5
2018-Jun-21 02:00N 55°06' E 011°02'918.1
2018-Jun-21 01:31N 55°15' E 011°05'1711.5
2018-Jun-21 00:00N 55°30' E 010°48'5919.6 270 / 351011.0 2.2 15.015.016.5
2018-Jun-20 21:00N 56°24' E 011°30'365407.1 020 / 371010.4 2.2 13.213.217.4
2018-Jun-20 20:06N 50°56' E 006°58'0 0.1
2018-Jun-20 20:00N 50°56' E 006°58'1 1.5
2018-Jun-20 19:30N 50°57' E 006°58'4 8.0
2018-Jun-20 19:00N 50°54' E 007°02'2 3.3
2018-Jun-20 18:31N 50°54' E 006°59'4131811.1
2018-Jun-20 18:17N 57°15' E 011°31'520.0
2018-Jun-20 18:00N 57°20' E 011°28'415498227.6
2018-Jun-20 18:00N 50°56' E 006°58'422845.4
2018-Jun-20 17:30N 57°29' E 011°22'422379812.6
2018-Jun-20 17:30N 50°56' E 006°58'0 0.0
2018-Jun-20 17:01N 50°56' E 006°58'42552771.8
2018-Jun-20 17:00N 57°35' E 011°08'7840.2
2018-Jun-20 17:00N 57°36' E 010°54'423875.4 240 / 281008.0 1.1 15.6 17.0
2018-Jun-20 16:31N 50°56' E 006°58'3 5.8
2018-Jun-20 16:01N 50°59' E 006°59'3 5.7
2018-Jun-20 15:31N 51°02' E 006°58'3 6.5
2018-Jun-20 15:01N 51°04' E 006°54'41324352.6
2018-Jun-20 15:00N 57°42' E 010°00'411850.7 020 / 71010.4 1.1 13.213.213.8
2018-Jun-20 14:31N 51°06' E 006°52'2 4.0
2018-Jun-20 14:01N 51°08' E 006°51'0 0.0
2018-Jun-20 13:31N 51°08' E 006°51'0 0.0
2018-Jun-20 13:01N 51°08' E 006°51'39023000.0
2018-Jun-20 13:00N 57°30' E 009°00'390806.3 250 / 301010.0 2.2 16.016.014.0
2018-Jun-20 12:31N 51°08' E 006°51'0 0.0
2018-Jun-20 12:01N 51°08' E 006°51'0 0.0
2018-Jun-20 11:31N 51°08' E 006°51'2 4.2
2018-Jun-20 11:01N 51°06' E 006°52'5 9.6
2018-Jun-20 10:31N 51°02' E 006°57'5 9.5
2018-Jun-20 10:01N 50°58' E 006°59'2 3.4
2018-Jun-20 09:30N 50°56' E 006°58'0 0.0
2018-Jun-20 09:00N 50°56' E 006°58'0 0.0
2018-Jun-20 08:30N 50°56' E 006°58'0 0.0
2018-Jun-20 08:00N 50°56' E 006°58'0 0.0
2018-Jun-20 07:29N 50°56' E 006°58'0 0.0
2018-Jun-20 07:00N 50°56' E 006°58'0 0.0
2018-Jun-20 06:30N 50°56' E 006°58'0 0.0
2018-Jun-20 06:00N 50°56' E 006°58'0 0.0
2018-Jun-20 05:30N 50°56' E 006°58'0 0.0
2018-Jun-20 05:00N 50°56' E 006°58'26317565.8
2018-Jun-20 05:00N 55°12' E 005°12'263543.3 210 / 231016.3 5.4 17.2 15.5
2018-Jun-20 04:30N 50°56' E 006°58'0 0.0
2018-Jun-20 04:00N 50°56' E 006°58'36624400.8
2018-Jun-20 04:00N 57°00' E 005°48'366754.7 220 / 241017.0 16.5 15.6
2018-Jun-20 03:30N 50°56' E 006°58'0 0.0
2018-Jun-20 03:00N 50°56' E 006°58'0 0.0
2018-Jun-20 02:30N 50°56' E 006°58'0 0.0
2018-Jun-20 02:00N 50°56' E 006°58'22018437.2
2018-Jun-20 02:00N 54°30' E 005°30'220451.2 220 / 221019.0 5.4 16.7 16.0
2018-Jun-20 01:30N 50°56' E 006°58'0 0.0
2018-Jun-20 01:00N 50°56' E 006°58'19213019.6
2018-Jun-20 01:00N 53°54' E 005°00'192395.2 210 / 251020.0 5.4 17.017.015.0
2018-Jun-20 00:30N 50°56' E 006°58'0 0.0
2018-Jun-20 00:00N 50°56' E 006°58'181495.6
2018-Jun-19 23:39N 53°40' E 004°52'320.2
2018-Jun-19 23:31N 53°37' E 004°50'179107277.6
2018-Jun-19 23:30N 50°56' E 006°58'172343.4
2018-Jun-19 23:00N 53°28' E 004°46'172308917.2
2018-Jun-19 23:00N 50°56' E 006°58'166333.3
2018-Jun-19 22:30N 53°19' E 004°37'166299615.0
2018-Jun-19 22:30N 50°56' E 006°58'160321.8
2018-Jun-19 22:01N 53°09' E 004°31'164117722.3
2018-Jun-19 22:00N 50°54' E 007°01'4 8.0
2018-Jun-19 21:30N 50°50' E 006°59'16164593.6
2018-Jun-19 21:30N 52°59' E 004°22'1020.8
2018-Jun-19 21:01N 52°50' E 004°15'16373439.3
2018-Jun-19 21:00N 50°46' E 007°05'159318.5
2018-Jun-19 20:31N 52°41' E 004°11'16172621.5
2018-Jun-19 20:30N 50°43' E 007°08'151304.0
2018-Jun-19 20:01N 52°34' E 004°21'15120187.4
2018-Jun-19 20:00N 50°43' E 007°08'145293.8
2018-Jun-19 19:31N 52°28' E 004°28'14827990.2
2018-Jun-19 19:30N 50°41' E 007°11'144290.9
2018-Jun-19 19:00N 52°28' E 004°36'14511569.1
2018-Jun-19 19:00N 50°40' E 007°11'144296.3
2018-Jun-19 18:30N 52°28' E 004°36'14236600.4
2018-Jun-19 18:30N 50°42' E 007°10'142286.0
2018-Jun-19 18:00N 52°28' E 004°37'140101067.5
2018-Jun-19 18:00N 50°43' E 007°08'139279.0
2018-Jun-19 17:30N 52°28' E 004°40'13798786.2
2018-Jun-19 17:30N 50°45' E 007°06'134270.0
2018-Jun-19 17:01N 52°26' E 004°44'13259507.1
2018-Jun-19 17:00N 50°46' E 007°04'130260.7
2018-Jun-19 16:31N 52°25' E 004°48'12857588.4
2018-Jun-19 16:30N 50°48' E 007°02'125250.9
2018-Jun-19 16:01N 52°24' E 004°53'1284222.7
2018-Jun-19 15:59N 50°46' E 007°05'3 6.1
2018-Jun-19 15:30N 50°43' E 007°08'12933272.0
2018-Jun-19 15:29N 52°23' E 004°55'134276.9
2018-Jun-19 15:00N 50°40' E 007°12'1347638.1
2018-Jun-19 14:59N 52°23' E 004°55'0 0.0
2018-Jun-19 14:29N 52°23' E 004°55'13569312.3
2018-Jun-19 14:29N 50°39' E 007°13'2 4.4
2018-Jun-19 14:00N 50°41' E 007°11'1339187.0
2018-Jun-19 13:59N 52°23' E 004°55'130268.4
2018-Jun-19 13:30N 50°43' E 007°09'1303108.8
2018-Jun-19 13:28N 52°23' E 004°55'129284.6
2018-Jun-19 13:00N 50°43' E 007°08'1295119.6
2018-Jun-19 12:59N 52°23' E 004°55'129272.6
2018-Jun-19 12:30N 50°43' E 007°08'1295176.6
2018-Jun-19 12:29N 52°23' E 004°55'129270.7
2018-Jun-19 12:00N 50°43' E 007°08'1295823.7
2018-Jun-19 11:59N 52°23' E 004°55'127267.0
2018-Jun-19 11:30N 50°45' E 007°06'12713499.2
2018-Jun-19 11:30N 52°23' E 004°55'124254.1
2018-Jun-19 11:00N 50°47' E 007°02'1242011.9
2018-Jun-19 10:57N 52°23' E 004°55'121276.5
2018-Jun-19 10:30N 50°50' E 006°59'1219910.9
2018-Jun-19 10:30N 52°23' E 004°55'0 0.0
2018-Jun-19 10:01N 52°23' E 004°55'12071997.0
2018-Jun-19 10:00N 50°52' E 007°01'2 3.2
2018-Jun-19 09:30N 50°54' E 007°01'119213326.9
2018-Jun-19 09:30N 52°23' E 004°55'0 0.0
2018-Jun-19 09:00N 52°23' E 004°55'11583058.3
2018-Jun-19 09:00N 50°56' E 006°58'1127622.4
2018-Jun-19 09:00N 52°18' E 004°54'5 9.9 280 / 101024.010.8 18.1 20.5
2018-Jun-19 08:30N 52°23' E 004°55'11569193.5
2018-Jun-19 08:30N 50°56' E 006°58'115231.4
2018-Jun-19 08:00N 52°23' E 004°55'11515967.7
2018-Jun-19 08:00N 50°56' E 006°58'11212238.1
2018-Jun-19 08:00N 52°18' E 004°54'5 9.8 250 / 121023.0 5.4 18.7 20.5
2018-Jun-19 07:30N 52°23' E 004°55'11569190.1
2018-Jun-19 07:30N 50°56' E 006°58'115231.4
2018-Jun-19 07:00N 52°23' E 004°55'11525859.6
2018-Jun-19 07:00N 50°58' E 006°60'3 6.1
2018-Jun-19 06:30N 51°01' E 006°58'11280754.1
2018-Jun-19 06:30N 52°23' E 004°55'0 0.0
2018-Jun-19 06:01N 52°23' E 004°55'10948995.5
2018-Jun-19 06:00N 51°03' E 006°55'109218.7
2018-Jun-19 05:31N 52°23' E 004°55'10647644.7
2018-Jun-19 05:30N 51°05' E 006°51'106212.7
2018-Jun-19 05:01N 52°23' E 004°55'10423370.3
2018-Jun-19 05:00N 51°08' E 006°51'104208.9
2018-Jun-19 04:30N 52°23' E 004°55'0 0.0
2018-Jun-19 04:00N 52°23' E 004°55'100359793.9
2018-Jun-19 04:00N 51°11' E 006°47'100200.7
2018-Jun-19 03:31N 52°23' E 004°55'9750096.6
2018-Jun-19 03:30N 51°12' E 006°44'97194.9
2018-Jun-19 03:01N 52°23' E 004°56'9758240.1
2018-Jun-19 03:00N 51°14' E 006°46'99199.7
2018-Jun-19 02:31N 52°24' E 004°53'993437.2
2018-Jun-19 02:29N 51°14' E 006°46'102217.0
2018-Jun-19 02:01N 52°25' E 004°48'1023507.6
2018-Jun-19 01:59N 51°14' E 006°46'105223.9
2018-Jun-19 01:31N 52°26' E 004°42'1053685.2
2018-Jun-19 01:29N 51°14' E 006°46'109230.5
2018-Jun-19 01:01N 52°28' E 004°37'1093797.0
2018-Jun-19 00:59N 51°14' E 006°46'109230.3
2018-Jun-19 00:30N 52°28' E 004°37'109856.4
2018-Jun-19 00:23N 51°14' E 006°46'110295.1
2018-Jun-19 00:00N 52°28' E 004°35'110333.2
2018-Jun-18 23:41N 51°14' E 006°46'112653.6
2018-Jun-18 23:31N 52°28' E 004°31'1123828.0
2018-Jun-18 23:29N 51°14' E 006°46'115244.0
2018-Jun-18 23:00N 52°28' E 004°24'1154017.9
2018-Jun-18 22:59N 51°14' E 006°46'120254.0
2018-Jun-18 22:30N 52°29' E 004°15'510.9
2018-Jun-18 22:00N 52°29' E 004°06'124542.9
2018-Jun-18 21:47N 51°14' E 006°46'127466.8
2018-Jun-18 21:30N 52°27' E 003°57'127388.1
2018-Jun-18 21:11N 51°14' E 006°46'131748.8
2018-Jun-18 21:00N 52°25' E 003°48'1315360.4
2018-Jun-18 20:59N 51°14' E 006°46'0 0.0
2018-Jun-18 20:30N 51°14' E 006°46'13548681.7
2018-Jun-18 20:30N 52°24' E 003°39'611.3
2018-Jun-18 20:00N 52°21' E 003°31'136122312.5
2018-Jun-18 20:00N 51°15' E 006°44'138277.1
2018-Jun-18 19:30N 52°17' E 003°24'140252520.1
2018-Jun-18 19:30N 51°14' E 006°46'3 5.9
2018-Jun-18 19:01N 51°11' E 006°44'143171467.4
2018-Jun-18 19:00N 52°14' E 003°17'144288.5
2018-Jun-18 18:31N 51°11' E 006°45'1477644.2
2018-Jun-18 18:29N 52°10' E 003°09'145300.2
2018-Jun-18 18:00N 51°13' E 006°44'1476027.1
2018-Jun-18 17:59N 52°06' E 003°02'148311.4
2018-Jun-18 17:30N 51°13' E 006°46'151885.9
2018-Jun-18 17:20N 51°60' E 002°55'151456.6
2018-Jun-18 17:00N 51°14' E 006°46'15217705.3
2018-Jun-18 17:00N 51°56' E 002°50'152310.4
2018-Jun-18 16:30N 51°14' E 006°46'155111772.3
2018-Jun-18 16:30N 51°52' E 002°44'612.2
2018-Jun-18 16:01N 51°47' E 002°38'15871225.5
2018-Jun-18 16:00N 51°14' E 006°46'34823611.2
2018-Jun-18 16:00N 51°42' W 002°30'348716.7 210 / 281020.0 5.4 16.4 14.8
2018-Jun-18 15:30N 51°14' E 006°46'16241538.4
2018-Jun-18 15:30N 51°43' E 002°31'612.3
2018-Jun-18 15:00N 51°38' E 002°24'165148464.4
2018-Jun-18 15:00N 51°14' E 006°46'34022263.0
2018-Jun-18 15:00N 51°30' W 002°18'172354.7 230 / 241020.0 5.4 16.4 14.8
2018-Jun-18 14:30N 51°33' E 002°18'169151800.9
2018-Jun-18 14:30N 51°14' E 006°46'172345.9
2018-Jun-18 14:01N 51°29' E 002°11'171615319.9
2018-Jun-18 14:01N 51°13' E 006°44'175349.8
2018-Jun-18 13:31N 51°24' E 002°05'17958418.4
2018-Jun-18 13:30N 51°09' E 006°49'182366.7
2018-Jun-18 13:01N 51°19' E 001°58'185166095.0
2018-Jun-18 13:00N 51°06' E 006°52'189377.9
2018-Jun-18 12:31N 51°15' E 001°52'19399303.5
2018-Jun-18 12:30N 51°01' E 006°58'5 9.7
2018-Jun-18 12:01N 50°56' E 006°58'201399.8
2018-Jun-18 11:30N 51°05' E 001°39'612.0
2018-Jun-18 11:01N 51°01' E 001°33'1156897.1
2018-Jun-18 11:00N 51°00' W 001°30'112230.7 230 / 201022.0 2.2 16.016.014.0
2018-Jun-18 10:30N 50°56' E 001°27'611.8
2018-Jun-18 10:01N 50°50' E 001°23'611.8
2018-Jun-18 09:31N 50°45' E 001°22'611.6
2018-Jun-18 09:00N 50°40' E 001°16'945714.7
2018-Jun-18 09:00N 50°36' W 001°12'89184.5 240 / 201022.0 2.2 15.0 14.0
2018-Jun-18 08:30N 50°36' E 001°09'611.8
2018-Jun-18 08:00N 50°32' E 001°01'611.9
2018-Jun-18 07:30N 50°29' E 000°54'611.9
2018-Jun-18 07:01N 50°27' E 000°45'912.0
2018-Jun-18 06:16N 50°24' E 000°32'2488.8
2018-Jun-18 06:00N 50°12' E 000°00'19118.2 240 / 251020.0 5.4 22.0 13.4
2018-Jun-18 05:50N 50°22' E 000°24'411.9
2018-Jun-18 05:29N 50°21' E 000°18'611.8
2018-Jun-18 05:01N 50°19' E 000°10'10581.6
2018-Jun-18 05:00N 50°12' E 000°00'611.4 240 / 251020.0 5.4 22.0 13.4
2018-Jun-18 04:31N 50°17' E 000°01'611.8
2018-Jun-18 04:01N 50°16' W 000°08'611.9
2018-Jun-18 03:30N 50°14' W 000°17'611.7
2018-Jun-18 03:00N 50°12' W 000°25'7578.9
2018-Jun-18 03:00N 50°06' W 000°30'5 9.9 240 / 251020.0 22.0 13.4
2018-Jun-18 02:31N 50°10' W 000°34'611.9
2018-Jun-18 02:01N 50°08' W 000°43'4243.1
2018-Jun-18 02:00N 50°06' W 000°48'2 4.8 230 / 221020.0 0.5 14.014.013.0
2018-Jun-18 01:28N 50°06' W 000°52'5112.0
2018-Jun-17 21:13N 49°45' W 002°04'315.5
2018-Jun-17 21:00N 49°42' W 002°05'64007.1
2018-Jun-17 21:00N 49°36' W 002°06'2 3.4 230 / 18 15.1 14.1
2018-Jun-17 20:30N 49°36' W 002°08'612.4
2018-Jun-17 20:00N 49°30' W 002°12'7492.0
2018-Jun-17 20:00N 49°24' W 002°06'612.9 230 / 171020.0 5.4 16.2 14.2
2018-Jun-17 19:30N 49°24' W 002°16'366760.4
2018-Jun-17 19:01N 50°56' E 006°58'0 0.0
2018-Jun-17 19:00N 50°56' E 006°58'37233458.6
2018-Jun-17 19:00N 49°23' W 002°24'372761.6
2018-Jun-17 18:30N 50°54' E 006°59'37533734.0
2018-Jun-17 18:30N 49°27' W 002°30'374765.1
2018-Jun-17 18:00N 50°56' E 006°58'374673590.5
2018-Jun-17 18:00N 49°28' W 002°30'375751.6
2018-Jun-17 17:30N 50°58' E 006°59'37532172.8
2018-Jun-17 17:30N 49°28' W 002°30'0 0.0
2018-Jun-17 17:00N 49°28' W 002°30'37474852.9
2018-Jun-17 17:00N 50°55' E 006°58'4 7.7
2018-Jun-17 16:31N 50°52' E 007°02'37626059.1
2018-Jun-17 16:30N 49°28' W 002°30'377775.8
2018-Jun-17 16:01N 50°53' E 007°03'37745231.0
2018-Jun-17 16:00N 49°28' W 002°30'375764.0
2018-Jun-17 15:31N 50°54' E 007°00'37525492.5
2018-Jun-17 15:30N 49°28' W 002°30'374771.0
2018-Jun-17 15:01N 50°56' E 006°58'37420414.1
2018-Jun-17 14:59N 49°28' W 002°30'0 0.1
2018-Jun-17 14:28N 49°28' W 002°30'0 0.2
2018-Jun-17 13:59N 49°28' W 002°30'0 0.2
2018-Jun-17 13:30N 49°28' W 002°30'0 0.1
2018-Jun-17 13:00N 49°28' W 002°30'0 0.1
2018-Jun-17 12:28N 49°28' W 002°30'0 0.1
2018-Jun-17 11:59N 49°28' W 002°30'0 0.0
2018-Jun-17 11:30N 49°28' W 002°30'0 0.0
2018-Jun-17 11:00N 49°28' W 002°30'0 0.0
2018-Jun-17 10:29N 49°28' W 002°30'0 0.0
2018-Jun-17 10:00N 49°28' W 002°30'4280.9
2018-Jun-17 10:00N 49°24' W 002°30'4 7.5 1019.0 5.4 16.2 13.8
2018-Jun-17 09:30N 49°28' W 002°30'0 0.2
2018-Jun-17 08:59N 49°28' W 002°30'0 0.2
2018-Jun-17 08:30N 49°28' W 002°30'1 2.4
2018-Jun-17 08:00N 49°27' W 002°30'611.9
2018-Jun-17 07:30N 49°23' W 002°37'917.8
2018-Jun-17 07:00N 49°24' W 002°50'916.8
2018-Jun-17 06:28N 49°26' W 003°04'115243.0
2018-Jun-17 06:00N 49°24' W 006°00'1064268.6 260 / 181019.0 5.4 14.0 14.4
2018-Jun-17 05:58N 49°29' W 003°18'1019.3
2018-Jun-17 05:28N 49°31' W 003°32'131273.5
2018-Jun-17 05:00N 49°30' W 006°54'106131.4 230 / 191019.0 5.4 14.3 14.4
2018-Jun-17 04:11N 49°37' W 004°10'619.4
2018-Jun-17 03:53N 49°38' W 004°19'8 8.4
2018-Jun-17 03:00N 49°36' W 004°30'2533.6 270 / 231019.0 5.4 13.0 15.9
2018-Jun-17 02:14N 49°45' W 005°06'418.7
2018-Jun-17 02:00N 49°46' W 005°13'1418.6
2018-Jun-17 01:15N 49°49' W 005°34'519.5
2018-Jun-17 01:00N 49°48' W 005°42'2418.4 260 / 201020.0 5.4 15.015.015.0
2018-Jun-16 23:41N 50°09' W 005°59'420.8
2018-Jun-16 23:29N 50°14' W 005°59'4618.6
2018-Jun-16 21:00N 50°48' W 006°48'521316.5 290 / 201017.0 5.4 15.0 15.3
2018-Jun-16 19:21N 50°56' E 006°58'1 3.4
2018-Jun-16 19:01N 50°57' E 006°59'54932958.6
2018-Jun-16 19:00N 51°18' W 007°36'311.9 280 / 281015.0 5.4 13.4 13.8
2018-Jun-16 18:46N 51°20' W 007°38'5512169.6
2018-Jun-16 18:31N 50°55' E 006°58'5541995423.4
2018-Jun-16 18:31N 51°24' W 007°44'1020.1
2018-Jun-16 18:01N 51°31' W 007°55'5612018932.4
2018-Jun-16 18:01N 50°56' E 006°58'56734033.0
2018-Jun-16 18:00N 51°36' W 008°06'5671172.8 250 / 311014.0 5.4 13.4 13.8
2018-Jun-16 17:31N 50°56' E 006°58'568408628.3
2018-Jun-16 17:30N 51°38' W 008°07'5681138.2
2018-Jun-16 17:01N 50°56' E 006°58'57252820.7
2018-Jun-16 17:00N 51°46' W 008°15'5721169.8
2018-Jun-16 16:31N 50°56' E 006°58'573147240.9
2018-Jun-16 16:30N 51°51' W 008°16'5731154.8
2018-Jun-16 16:01N 50°56' E 006°58'57425510.5
2018-Jun-16 15:59N 51°51' W 008°18'5761205.1
2018-Jun-16 15:30N 50°54' E 007°00'57626590.2
2018-Jun-16 15:29N 51°51' W 008°18'5761205.2
2018-Jun-16 15:01N 50°50' E 006°59'57625592.3
2018-Jun-16 14:59N 51°51' W 008°18'5801214.8
2018-Jun-16 14:31N 50°46' E 007°05'58026448.8
2018-Jun-16 14:29N 51°51' W 008°18'5841222.2
2018-Jun-16 14:01N 50°43' E 007°10'58426292.6
2018-Jun-16 13:59N 51°51' W 008°18'5871227.1
2018-Jun-16 13:30N 50°39' E 007°13'58727441.5
2018-Jun-16 13:29N 51°51' W 008°18'0 0.0
2018-Jun-16 12:59N 51°51' W 008°18'5908893.4
2018-Jun-16 12:55N 50°34' E 007°16'2 4.3
2018-Jun-16 12:30N 50°35' E 007°14'58934740.5
2018-Jun-16 12:29N 51°51' W 008°18'5871189.6
2018-Jun-16 12:00N 50°38' E 007°13'58796084.9
2018-Jun-16 11:59N 51°51' W 008°18'5861219.8
2018-Jun-16 11:30N 50°40' E 007°11'58629705.3
2018-Jun-16 11:29N 51°51' W 008°18'5851217.0
2018-Jun-16 11:00N 50°42' E 007°10'58529225.2
2018-Jun-16 10:59N 51°51' W 008°18'5821191.7
2018-Jun-16 10:30N 50°44' E 007°07'58249880.1
2018-Jun-16 10:29N 51°51' W 008°18'5801201.2
2018-Jun-16 10:00N 50°46' E 007°04'58033671.6
2018-Jun-16 09:59N 51°51' W 008°18'5781203.1
2018-Jun-16 09:30N 50°49' E 007°02'57829297.8
2018-Jun-16 09:29N 51°51' W 008°18'5761192.8
2018-Jun-16 09:00N 50°51' E 006°59'57633983.7
2018-Jun-16 08:59N 51°51' W 008°18'5781203.3
2018-Jun-16 08:30N 50°53' E 007°03'57816778.3
2018-Jun-16 08:28N 51°51' W 008°18'5761236.7
2018-Jun-16 08:00N 50°54' E 006°60'57616714.9
2018-Jun-16 07:58N 51°51' W 008°18'5741232.2
2018-Jun-16 07:30N 50°56' E 006°58'57412084.0
2018-Jun-16 07:28N 51°51' W 008°18'0 0.0
2018-Jun-16 07:00N 51°51' W 008°18'0 0.0
2018-Jun-16 06:31N 51°51' W 008°18'0 0.0
2018-Jun-16 06:01N 51°51' W 008°18'0 0.0
2018-Jun-16 05:31N 51°51' W 008°18'1 2.2
2018-Jun-16 05:01N 51°51' W 008°16'511.0
2018-Jun-16 04:31N 51°45' W 008°15'4 8.7
2018-Jun-16 04:01N 51°43' W 008°09'4 9.0
2018-Jun-16 03:31N 51°42' W 008°02'4 8.6
2018-Jun-16 03:01N 51°40' W 007°56'4256.0
2018-Jun-16 03:00N 51°36' W 007°54'4 7.9 190 / 261011.0 5.4 12.0 13.7
2018-Jun-16 02:31N 51°39' W 007°50'4 8.6
2018-Jun-16 02:00N 51°37' W 007°43'4 8.6
2018-Jun-16 01:31N 51°36' W 007°36'4 8.6
2018-Jun-16 01:01N 51°35' W 007°29'139.7
2018-Jun-16 01:00N 51°36' W 007°30'5 9.7 210 / 301013.0 5.4 15.015.015.5
2018-Jun-16 00:30N 51°35' W 007°23'4 8.2
2018-Jun-16 00:01N 51°34' W 007°16'4 8.6
2018-Jun-15 23:30N 51°32' W 007°10'4 8.7
2018-Jun-15 23:00N 51°31' W 007°03'13 7.5
2018-Jun-15 21:18N 51°43' W 006°56'3 8.8
2018-Jun-15 21:01N 51°45' W 006°59'5 8.9
2018-Jun-15 20:30N 51°49' W 007°03'5271129.0
2018-Jun-15 20:02N 50°56' E 006°58'0 0.0
2018-Jun-15 20:00N 50°56' E 006°58'5289003.2
2018-Jun-15 19:57N 51°54' W 007°03'5281203.0
2018-Jun-15 19:31N 50°58' E 006°59'4 7.9
2018-Jun-15 19:00N 50°54' E 007°00'2 3.5
2018-Jun-15 18:30N 50°52' E 007°02'1 2.8
2018-Jun-15 18:00N 50°54' E 007°02'2 4.0
2018-Jun-15 17:30N 50°54' E 006°59'2 4.6
2018-Jun-15 17:00N 50°56' E 006°58'52265.2
2018-Jun-15 09:00N 52°06' W 006°54'2 0.3 230 / 171017.010.8 16.4 13.9
2018-Jun-15 03:56N 52°05' W 006°55'510.6
2018-Jun-15 03:31N 52°03' W 006°48'610.8
2018-Jun-15 02:59N 52°01' W 006°40'510.3
2018-Jun-15 02:30N 52°03' W 006°32'510.4
2018-Jun-15 02:01N 52°05' W 006°24'510.5
2018-Jun-15 01:31N 52°07' W 006°16'5 9.9
2018-Jun-15 01:01N 52°10' W 006°10'4257.8
2018-Jun-15 01:00N 52°06' W 006°06'817.3 280 / 301017.0 2.2 14.014.013.0
2018-Jun-15 00:31N 52°14' W 006°06'  
Track history (hours):
 
Tides and Currents Weather Stations Pressure Air Temp Water Temp Dewpoint Dewpoint Depression Visibility Wind Speed Wind Dir Waves Ship Positions

Celebrity Eclipse

Last reported at 2018-Jun-25 00:30 UTC. Time now 2018-Jun-25 00:43 UTC.
Position N 59°57' E 030°11'.

Length 317 m; draft 8.8 m.

Type: Passenger vessel. MMSI: 249666000.

Date/timePositionNaut miles runAvg speedWind from/ knotsBaromVisibWave heightAir tempDewpointWater temp
2018-Jun-25 00:30N 59°57' E 030°11'0 0.0
2018-Jun-25 00:00N 59°57' E 030°11'0 0.0
2018-Jun-24 23:28N 59°57' E 030°11'0 0.0
2018-Jun-24 22:57N 59°57' E 030°11'0 0.0
2018-Jun-24 22:29N 59°57' E 030°11'0 0.0
2018-Jun-24 21:58N 59°57' E 030°11'0 0.0
2018-Jun-24 21:30N 59°57' E 030°11'0 0.0
2018-Jun-24 20:59N 59°57' E 030°11'0 0.0
2018-Jun-24 20:27N 59°57' E 030°11'0 0.0
2018-Jun-24 19:59N 59°57' E 030°11'0 0.0
2018-Jun-24 19:28N 59°57' E 030°11'0 0.0
2018-Jun-24 19:00N 59°57' E 030°11'0 0.0
2018-Jun-24 18:30N 59°57' E 030°11'9572663.4
2018-Jun-24 18:09N 50°56' E 006°58'0 0.0
2018-Jun-24 18:00N 50°56' E 006°58'95713568.7
2018-Jun-24 17:56N 59°57' E 030°11'9552232.7
2018-Jun-24 17:30N 50°58' E 006°60'95555457.7
2018-Jun-24 17:29N 59°57' E 030°11'9551976.8
2018-Jun-24 17:00N 50°60' E 006°58'95536963.9
2018-Jun-24 16:59N 59°57' E 030°11'9532010.7
2018-Jun-24 16:30N 51°02' E 006°58'95321318.3
2018-Jun-24 16:28N 59°57' E 030°11'9542096.1
2018-Jun-24 16:00N 51°03' E 006°55'954245245.4
2018-Jun-24 16:00N 59°57' E 030°11'9551924.0
2018-Jun-24 15:30N 51°04' E 006°52'95510257.4
2018-Jun-24 15:25N 59°57' E 030°11'9552343.9
2018-Jun-24 15:00N 51°04' E 006°52'95490426.2
2018-Jun-24 15:00N 59°57' E 030°11'4658.6
2018-Jun-24 15:00N 59°54' E 030°06'9501964.2 1006.2 2.2 14.7 15.7
2018-Jun-24 14:30N 51°02' E 006°58'9537835.9
2018-Jun-24 14:23N 59°57' E 030°11'9552506.5
2018-Jun-24 14:00N 50°58' E 006°60'95269928.4
2018-Jun-24 14:00N 59°54' E 030°06'475.6 060 / 141007.0 5.4 14.3 15.7
2018-Jun-24 13:57N 59°57' E 030°11'9572189.6
2018-Jun-24 13:30N 50°56' E 006°58'957111174.9
2018-Jun-24 13:30N 59°57' E 030°11'9571949.3
2018-Jun-24 13:00N 50°56' E 006°58'95744758.8
2018-Jun-24 12:59N 59°57' E 030°11'9572000.3
2018-Jun-24 12:30N 50°56' E 006°58'9578747.3
2018-Jun-24 12:24N 59°57' E 030°11'9572449.5
2018-Jun-24 12:00N 50°56' E 006°58'95795734.2
2018-Jun-24 12:00N 59°57' E 030°11'9571954.9
2018-Jun-24 11:30N 50°56' E 006°58'957101366.0
2018-Jun-24 11:30N 59°57' E 030°11'9571919.0
2018-Jun-24 11:00N 50°56' E 006°58'95732823.1
2018-Jun-24 10:58N 59°57' E 030°11'9571963.8
2018-Jun-24 10:29N 50°56' E 006°58'95774922.4
2018-Jun-24 10:28N 59°57' E 030°11'9572071.2
2018-Jun-24 10:00N 50°56' E 006°58'95710975.9
2018-Jun-24 09:55N 59°57' E 030°11'9572320.8
2018-Jun-24 09:30N 50°56' E 006°58'957492347.3
2018-Jun-24 09:30N 59°57' E 030°11'9571920.0
2018-Jun-24 09:00N 50°56' E 006°58'95723286.8
2018-Jun-24 08:58N 59°57' E 030°11'9572086.2
2018-Jun-24 08:30N 50°56' E 006°58'95723130.5
2018-Jun-24 08:28N 59°57' E 030°11'9572087.5
2018-Jun-24 08:00N 50°56' E 006°58'95731618.7
2018-Jun-24 07:59N 59°57' E 030°11'9572039.3
2018-Jun-24 07:30N 50°56' E 006°58'95733138.7
2018-Jun-24 07:29N 59°57' E 030°11'9572042.9
2018-Jun-24 07:01N 50°56' E 006°58'95721014.8
2018-Jun-24 06:58N 59°57' E 030°11'0 0.0
2018-Jun-24 06:30N 59°57' E 030°11'9571723214.5
2018-Jun-24 06:30N 50°56' E 006°58'0 0.0
2018-Jun-24 06:00N 50°56' E 006°58'957574405.0
2018-Jun-24 06:00N 59°57' E 030°11'9571930.8
2018-Jun-24 05:31N 50°56' E 006°58'95733460.6
2018-Jun-24 05:29N 59°57' E 030°11'9572020.2
2018-Jun-24 05:00N 50°56' E 006°58'957492349.0
2018-Jun-24 05:00N 59°57' E 030°11'9561918.6
2018-Jun-24 04:30N 50°58' E 006°60'95621910.7
2018-Jun-24 04:28N 59°57' E 030°11'0 0.0
2018-Jun-24 04:01N 59°57' E 030°11'954381712.1
2018-Jun-24 04:00N 51°01' E 006°58'3 6.2
2018-Jun-24 03:30N 51°03' E 006°55'954107310.3
2018-Jun-24 03:30N 59°57' E 030°11'9541941.2
2018-Jun-24 03:00N 51°05' E 006°51'950244269.9
2018-Jun-24 03:00N 59°56' E 030°03'9481901.6
2018-Jun-24 02:30N 51°08' E 006°51'945103039.8
2018-Jun-24 02:30N 59°56' E 029°54'9441934.7
2018-Jun-24 02:00N 51°09' E 006°50'9411694200.5
2018-Jun-24 02:00N 59°59' E 029°46'9411885.1
2018-Jun-24 01:30N 51°11' E 006°48'93747505.4
2018-Jun-24 01:29N 60°01' E 029°35'9381951.3
2018-Jun-24 01:00N 51°12' E 006°44'93311382.6
2018-Jun-24 00:55N 60°02' E 029°24'9312227.9
2018-Jun-24 00:30N 51°14' E 006°46'925114782.9
2018-Jun-24 00:30N 60°02' E 029°10'815.8
2018-Jun-24 00:00N 60°02' E 028°55'917550116.8
2018-Jun-24 00:00N 51°15' E 006°46'9101829.7
2018-Jun-23 23:31N 60°02' E 028°39'910327589.9
2018-Jun-23 23:30N 51°14' E 006°46'9041814.2
2018-Jun-23 23:00N 60°04' E 028°24'90470746.7
2018-Jun-23 23:00N 51°14' E 006°46'9001838.0
2018-Jun-23 22:30N 60°08' E 028°11'90087577.2
2018-Jun-23 22:30N 51°14' E 006°46'8941837.5
2018-Jun-23 22:01N 60°10' E 027°56'894402421.9
2018-Jun-23 22:00N 51°14' E 006°46'8881783.0
2018-Jun-23 21:31N 60°09' E 027°42'888355017.1
2018-Jun-23 21:30N 51°14' E 006°46'2 3.6
2018-Jun-23 21:00N 51°15' E 006°45'879137576.5
2018-Jun-23 21:00N 60°05' E 027°28'8801791.3
2018-Jun-23 20:31N 51°14' E 006°44'8723140440.4
2018-Jun-23 20:31N 60°01' E 027°15'815.5
2018-Jun-23 20:01N 59°58' E 027°01'866389580.9
2018-Jun-23 20:00N 51°11' E 006°46'8591726.6
2018-Jun-23 19:31N 59°59' E 026°46'860386896.6
2018-Jun-23 19:30N 51°12' E 006°44'8531712.8
2018-Jun-23 19:01N 59°58' E 026°30'851340386.5
2018-Jun-23 19:00N 51°14' E 006°44'8431694.6
2018-Jun-23 18:31N 59°56' E 026°15'842433160.8
2018-Jun-23 18:30N 51°14' E 006°46'8341664.3
2018-Jun-23 18:00N 59°54' E 025°60'834300415.2
2018-Jun-23 18:00N 51°14' E 006°46'0 0.0
2018-Jun-23 17:30N 51°14' E 006°46'827425217.7
2018-Jun-23 17:30N 59°52' E 025°44'815.2
2018-Jun-23 17:00N 59°54' E 025°29'821985153.3
2018-Jun-23 17:00N 51°14' E 006°46'8161640.6
2018-Jun-23 16:31N 59°57' E 025°15'81668332.1
2018-Jun-23 16:30N 51°14' E 006°46'8111662.6
2018-Jun-23 16:01N 59°60' E 025°00'811417321.9
2018-Jun-23 16:00N 51°14' E 006°46'0 0.0
2018-Jun-23 15:31N 51°14' E 006°46'1 2.9
2018-Jun-23 15:00N 51°15' E 006°45'81486170.6
2018-Jun-23 15:00N 60°09' E 024°55'8141627.7
2018-Jun-23 14:30N 51°17' E 006°42'81414649.6
2018-Jun-23 14:27N 60°09' E 024°55'8111855.6
2018-Jun-23 14:00N 51°19' E 006°44'81164906.2
2018-Jun-23 14:00N 60°09' E 024°55'33583.9
2018-Jun-23 14:00N 60°06' E 024°54'3 6.0 220 / 171010.0 5.4 14.1 11.0
2018-Jun-23 13:30N 60°09' E 024°55'81213175.4
2018-Jun-23 13:26N 51°18' E 006°43'4 8.3
2018-Jun-23 13:01N 51°15' E 006°46'81424417.1
2018-Jun-23 12:59N 60°09' E 024°55'8141743.2
2018-Jun-23 12:30N 51°14' E 006°46'81417146.4
2018-Jun-23 12:28N 60°09' E 024°55'8141796.6
2018-Jun-23 12:00N 51°14' E 006°46'81417452.6
2018-Jun-23 11:58N 60°09' E 024°55'8141801.0
2018-Jun-23 11:31N 51°14' E 006°46'81417046.8
2018-Jun-23 11:28N 60°09' E 024°55'0 0.0
2018-Jun-23 11:00N 60°09' E 024°55'814266341.5
2018-Jun-23 11:00N 51°15' E 006°46'0 0.0
2018-Jun-23 10:30N 51°15' E 006°46'81456341.5
2018-Jun-23 10:30N 60°09' E 024°55'8141599.2
2018-Jun-23 09:59N 51°15' E 006°46'81415501.4
2018-Jun-23 09:56N 60°09' E 024°55'8141921.3
2018-Jun-23 09:30N 51°15' E 006°46'81422538.2
2018-Jun-23 09:28N 60°09' E 024°55'8171765.9
2018-Jun-23 09:00N 51°11' E 006°45'817122586.0
2018-Jun-23 09:00N 60°09' E 024°55'8151640.0
2018-Jun-23 08:30N 51°10' E 006°51'81543814.9
2018-Jun-23 08:29N 60°09' E 024°55'8191705.7
2018-Jun-23 08:00N 51°05' E 006°51'81919401.9
2018-Jun-23 07:58N 60°09' E 024°55'8191786.9
2018-Jun-23 07:30N 51°00' E 006°58'81956732.6
2018-Jun-23 07:29N 60°09' E 024°55'0 0.0
2018-Jun-23 07:00N 60°09' E 024°55'823423140.3
2018-Jun-23 07:00N 50°56' E 006°58'8221656.7
2018-Jun-23 06:30N 60°09' E 024°54'510.0
2018-Jun-23 06:00N 60°04' E 024°54'611.1
2018-Jun-23 05:31N 59°58' E 024°57'816.8
2018-Jun-23 05:00N 59°51' E 024°50'815.9
2018-Jun-23 04:31N 59°45' E 024°38'917.0
2018-Jun-23 04:00N 59°44' E 024°22'816.9
2018-Jun-23 03:31N 59°41' E 024°06'917.2
2018-Jun-23 03:01N 59°39' E 023°50'4213.9
2018-Jun-23 03:00N 59°36' E 023°54'1021.6 240 / 151006.9 5.4 13.0 12.5
2018-Jun-23 02:30N 59°36' E 023°33'917.2
2018-Jun-23 02:01N 59°33' E 023°17'5285.8
2018-Jun-23 02:00N 59°30' E 023°24'1224.2 220 / 151006.6 5.4 13.0 11.5
2018-Jun-23 01:30N 59°31' E 023°01'918.2
2018-Jun-23 01:00N 59°24' E 022°48'449.0 230 / 181006.9 5.4 13.1 12.0
2018-Jun-23 00:55N 59°27' E 022°42'4322.4
2018-Jun-22 23:00N 59°00' E 021°36'699484.1 230 / 181007.0 2.2 13.013.012.8
2018-Jun-22 21:33N 50°56' E 006°58'0 0.1
2018-Jun-22 21:30N 50°56' E 006°58'2 4.0
2018-Jun-22 21:01N 50°58' E 006°60'2 4.8
2018-Jun-22 20:30N 50°60' E 006°58'1 2.4
2018-Jun-22 20:00N 51°01' E 006°58'4 7.2
2018-Jun-22 19:30N 50°58' E 006°59'3 6.9
2018-Jun-22 19:00N 50°54' E 006°59'2 4.7
2018-Jun-22 18:30N 50°56' E 006°58'6201203.2
2018-Jun-22 18:00N 57°54' E 020°06'2914.4 270 / 131008.010.8 15.7 13.4
2018-Jun-22 16:00N 57°30' E 019°36'227226.9 230 / 241007.7 5.4 15.8 14.5
2018-Jun-22 15:00N 60°06' E 024°54'0 0.0 260 / 201007.9 5.4 15.1 14.7
2018-Jun-22 14:00N 60°06' E 024°54'37662.7 290 / 141008.4 5.4 14.714.711.9
2018-Jun-22 08:00N 55°48' E 016°18'2014.7 260 / 241007.0 5.4 15.815.813.0
2018-Jun-22 06:37N 55°42' E 015°44'918.2
2018-Jun-22 06:07N 55°38' E 015°29'219.7
2018-Jun-22 06:00N 55°37' E 015°25'1019.5
2018-Jun-22 05:29N 55°33' E 015°09'919.4
2018-Jun-22 05:01N 55°28' E 014°55'1019.0
2018-Jun-22 04:30N 55°24' E 014°40'918.9
2018-Jun-22 04:01N 55°17' E 014°29'918.9
2018-Jun-22 03:31N 55°09' E 014°19'1019.1
2018-Jun-22 03:01N 55°02' E 014°08'11678.3
2018-Jun-22 03:00N 54°54' E 013°54'2221.6 300 / 251009.8 5.4 13.413.415.4
2018-Jun-22 02:00N 54°48' E 013°18'2112.4 290 / 251010.1 2.2 13.413.417.5
2018-Jun-22 00:17N 54°44' E 012°42'1619.7
2018-Jun-21 23:28N 54°35' E 012°18'920.4
2018-Jun-21 23:01N 54°27' E 012°12'5288.0
2018-Jun-21 23:00N 54°30' E 012°18'2019.9 290 / 401012.0 5.4 13.013.016.0
2018-Jun-21 22:00N 54°12' E 012°05'1 3.1
2018-Jun-21 21:31N 54°10' E 012°06'270188.4
2018-Jun-21 20:05N 50°56' E 006°58'0 0.1
2018-Jun-21 20:00N 50°56' E 006°58'1 1.2
2018-Jun-21 19:30N 50°57' E 006°58'4 7.7
2018-Jun-21 19:00N 50°54' E 007°02'26519435.4
2018-Jun-21 19:00N 54°06' E 012°00'265537.6 300 / 211013.010.8 11.9 18.7
2018-Jun-21 18:30N 50°54' E 006°59'2 4.7
2018-Jun-21 18:00N 50°56' E 006°58'0 0.0
2018-Jun-21 17:30N 50°56' E 006°58'0 0.0
2018-Jun-21 17:00N 50°56' E 006°58'26416986.1
2018-Jun-21 17:00N 54°06' E 012°00'265546.6 310 / 251013.7 2.2 11.1 18.7
2018-Jun-21 16:30N 50°55' E 006°58'1 2.1
2018-Jun-21 16:00N 50°56' E 006°58'270867.2
2018-Jun-21 15:42N 54°10' E 012°06'2701384.3
2018-Jun-21 15:30N 50°56' E 006°58'1 2.4
2018-Jun-21 15:00N 50°55' E 006°58'26518336.1
2018-Jun-21 15:00N 54°06' E 012°00'264547.0 310 / 101011.0 5.4 11.4 18.9
2018-Jun-21 14:31N 50°56' E 006°58'2704371.0
2018-Jun-21 14:27N 54°10' E 012°06'270614.9
2018-Jun-21 14:01N 50°56' E 006°58'2 3.4
2018-Jun-21 13:30N 50°55' E 006°59'2 3.3
2018-Jun-21 13:00N 50°56' E 006°58'2705609.2
2018-Jun-21 12:57N 54°10' E 012°06'270615.3
2018-Jun-21 12:31N 50°56' E 006°58'2704332.1
2018-Jun-21 12:27N 54°10' E 012°06'270615.3
2018-Jun-21 12:00N 50°55' E 006°58'26517027.9
2018-Jun-21 12:00N 54°06' E 012°00'264545.7 270 / 101009.3 5.4 15.6 19.0
2018-Jun-21 11:30N 50°56' E 006°58'0 0.0
2018-Jun-21 11:00N 50°56' E 006°58'270656.5
2018-Jun-21 10:36N 54°10' E 012°06'2703022.8
2018-Jun-21 10:30N 50°55' E 006°59'2702451.8
2018-Jun-21 10:24N 54°10' E 012°06'270691.1
2018-Jun-21 10:00N 50°56' E 006°58'27026952.0
2018-Jun-21 10:00N 54°10' E 012°06'270550.0
2018-Jun-21 09:30N 50°56' E 006°58'0 0.0
2018-Jun-21 09:00N 50°56' E 006°58'0 0.1
2018-Jun-21 08:30N 50°56' E 006°58'270253.6
2018-Jun-21 07:26N 54°10' E 012°06'0 0.0
2018-Jun-21 06:56N 54°10' E 012°06'0 0.6
2018-Jun-21 06:29N 54°11' E 012°06'2014.9
2018-Jun-21 05:08N 54°24' E 011°40'320.3
2018-Jun-21 05:00N 54°26' E 011°36'7482.4
2018-Jun-21 05:00N 54°24' E 011°24'714.9 320 / 231011.2 2.2 15.3 17.8
2018-Jun-21 04:31N 54°31' E 011°22'1019.7
2018-Jun-21 04:01N 54°36' E 011°07'11663.4
2018-Jun-21 04:00N 54°36' E 010°48'611.7 320 / 221011.9 1.1 15.0 16.0
2018-Jun-21 03:31N 54°41' E 010°53'917.7
2018-Jun-21 03:00N 54°50' E 010°52'3175.8
2018-Jun-21 03:00N 54°48' E 010°48'1122.9 290 / 241011.7 5.4 15.2 17.1
2018-Jun-21 02:31N 54°57' E 010°58'918.5
2018-Jun-21 02:00N 55°06' E 011°02'918.1
2018-Jun-21 01:31N 55°15' E 011°05'1711.5
2018-Jun-21 00:00N 55°30' E 010°48'5919.6 270 / 351011.0 2.2 15.015.016.5
2018-Jun-20 21:00N 56°24' E 011°30'365407.1 020 / 371010.4 2.2 13.213.217.4
2018-Jun-20 20:06N 50°56' E 006°58'0 0.1
2018-Jun-20 20:00N 50°56' E 006°58'1 1.5
2018-Jun-20 19:30N 50°57' E 006°58'4 8.0
2018-Jun-20 19:00N 50°54' E 007°02'2 3.3
2018-Jun-20 18:31N 50°54' E 006°59'4131811.1
2018-Jun-20 18:17N 57°15' E 011°31'520.0
2018-Jun-20 18:00N 57°20' E 011°28'415498227.6
2018-Jun-20 18:00N 50°56' E 006°58'422845.4
2018-Jun-20 17:30N 57°29' E 011°22'422379812.6
2018-Jun-20 17:30N 50°56' E 006°58'0 0.0
2018-Jun-20 17:01N 50°56' E 006°58'42552771.8
2018-Jun-20 17:00N 57°35' E 011°08'7840.2
2018-Jun-20 17:00N 57°36' E 010°54'423875.4 240 / 281008.0 1.1 15.6 17.0
2018-Jun-20 16:31N 50°56' E 006°58'3 5.8
2018-Jun-20 16:01N 50°59' E 006°59'3 5.7
2018-Jun-20 15:31N 51°02' E 006°58'3 6.5
2018-Jun-20 15:01N 51°04' E 006°54'41324352.6
2018-Jun-20 15:00N 57°42' E 010°00'411850.7 020 / 71010.4 1.1 13.213.213.8
2018-Jun-20 14:31N 51°06' E 006°52'2 4.0
2018-Jun-20 14:01N 51°08' E 006°51'0 0.0
2018-Jun-20 13:31N 51°08' E 006°51'0 0.0
2018-Jun-20 13:01N 51°08' E 006°51'39023000.0
2018-Jun-20 13:00N 57°30' E 009°00'390806.3 250 / 301010.0 2.2 16.016.014.0
2018-Jun-20 12:31N 51°08' E 006°51'0 0.0
2018-Jun-20 12:01N 51°08' E 006°51'0 0.0
2018-Jun-20 11:31N 51°08' E 006°51'2 4.2
2018-Jun-20 11:01N 51°06' E 006°52'5 9.6
2018-Jun-20 10:31N 51°02' E 006°57'5 9.5
2018-Jun-20 10:01N 50°58' E 006°59'2 3.4
2018-Jun-20 09:30N 50°56' E 006°58'0 0.0
2018-Jun-20 09:00N 50°56' E 006°58'0 0.0
2018-Jun-20 08:30N 50°56' E 006°58'0 0.0
2018-Jun-20 08:00N 50°56' E 006°58'0 0.0
2018-Jun-20 07:29N 50°56' E 006°58'0 0.0
2018-Jun-20 07:00N 50°56' E 006°58'0 0.0
2018-Jun-20 06:30N 50°56' E 006°58'0 0.0
2018-Jun-20 06:00N 50°56' E 006°58'0 0.0
2018-Jun-20 05:30N 50°56' E 006°58'0 0.0
2018-Jun-20 05:00N 50°56' E 006°58'26317565.8
2018-Jun-20 05:00N 55°12' E 005°12'263543.3 210 / 231016.3 5.4 17.2 15.5
2018-Jun-20 04:30N 50°56' E 006°58'0 0.0
2018-Jun-20 04:00N 50°56' E 006°58'36624400.8
2018-Jun-20 04:00N 57°00' E 005°48'366754.7 220 / 241017.0 16.5 15.6
2018-Jun-20 03:30N 50°56' E 006°58'0 0.0
2018-Jun-20 03:00N 50°56' E 006°58'0 0.0
2018-Jun-20 02:30N 50°56' E 006°58'0 0.0
2018-Jun-20 02:00N 50°56' E 006°58'22018437.2
2018-Jun-20 02:00N 54°30' E 005°30'220451.2 220 / 221019.0 5.4 16.7 16.0
2018-Jun-20 01:30N 50°56' E 006°58'0 0.0
2018-Jun-20 01:00N 50°56' E 006°58'19213019.6
2018-Jun-20 01:00N 53°54' E 005°00'192395.2 210 / 251020.0 5.4 17.017.015.0
2018-Jun-20 00:30N 50°56' E 006°58'0 0.0
2018-Jun-20 00:00N 50°56' E 006°58'181495.6
2018-Jun-19 23:39N 53°40' E 004°52'320.2
2018-Jun-19 23:31N 53°37' E 004°50'179107277.6
2018-Jun-19 23:30N 50°56' E 006°58'172343.4
2018-Jun-19 23:00N 53°28' E 004°46'172308917.2
2018-Jun-19 23:00N 50°56' E 006°58'166333.3
2018-Jun-19 22:30N 53°19' E 004°37'166299615.0
2018-Jun-19 22:30N 50°56' E 006°58'160321.8
2018-Jun-19 22:01N 53°09' E 004°31'164117722.3
2018-Jun-19 22:00N 50°54' E 007°01'4 8.0
2018-Jun-19 21:30N 50°50' E 006°59'16164593.6
2018-Jun-19 21:30N 52°59' E 004°22'1020.8
2018-Jun-19 21:01N 52°50' E 004°15'16373439.3
2018-Jun-19 21:00N 50°46' E 007°05'159318.5
2018-Jun-19 20:31N 52°41' E 004°11'16172621.5
2018-Jun-19 20:30N 50°43' E 007°08'151304.0
2018-Jun-19 20:01N 52°34' E 004°21'15120187.4
2018-Jun-19 20:00N 50°43' E 007°08'145293.8
2018-Jun-19 19:31N 52°28' E 004°28'14827990.2
2018-Jun-19 19:30N 50°41' E 007°11'144290.9
2018-Jun-19 19:00N 52°28' E 004°36'14511569.1
2018-Jun-19 19:00N 50°40' E 007°11'144296.3
2018-Jun-19 18:30N 52°28' E 004°36'14236600.4
2018-Jun-19 18:30N 50°42' E 007°10'142286.0
2018-Jun-19 18:00N 52°28' E 004°37'140101067.5
2018-Jun-19 18:00N 50°43' E 007°08'139279.0
2018-Jun-19 17:30N 52°28' E 004°40'13798786.2
2018-Jun-19 17:30N 50°45' E 007°06'134270.0
2018-Jun-19 17:01N 52°26' E 004°44'13259507.1
2018-Jun-19 17:00N 50°46' E 007°04'130260.7
2018-Jun-19 16:31N 52°25' E 004°48'12857588.4
2018-Jun-19 16:30N 50°48' E 007°02'125250.9
2018-Jun-19 16:01N 52°24' E 004°53'1284222.7
2018-Jun-19 15:59N 50°46' E 007°05'3 6.1
2018-Jun-19 15:30N 50°43' E 007°08'12933272.0
2018-Jun-19 15:29N 52°23' E 004°55'134276.9
2018-Jun-19 15:00N 50°40' E 007°12'1347638.1
2018-Jun-19 14:59N 52°23' E 004°55'0 0.0
2018-Jun-19 14:29N 52°23' E 004°55'13569312.3
2018-Jun-19 14:29N 50°39' E 007°13'2 4.4
2018-Jun-19 14:00N 50°41' E 007°11'1339187.0
2018-Jun-19 13:59N 52°23' E 004°55'130268.4
2018-Jun-19 13:30N 50°43' E 007°09'1303108.8
2018-Jun-19 13:28N 52°23' E 004°55'129284.6
2018-Jun-19 13:00N 50°43' E 007°08'1295119.6
2018-Jun-19 12:59N 52°23' E 004°55'129272.6
2018-Jun-19 12:30N 50°43' E 007°08'1295176.6
2018-Jun-19 12:29N 52°23' E 004°55'129270.7
2018-Jun-19 12:00N 50°43' E 007°08'1295823.7
2018-Jun-19 11:59N 52°23' E 004°55'127267.0
2018-Jun-19 11:30N 50°45' E 007°06'12713499.2
2018-Jun-19 11:30N 52°23' E 004°55'124254.1
2018-Jun-19 11:00N 50°47' E 007°02'1242011.9
2018-Jun-19 10:57N 52°23' E 004°55'121276.5
2018-Jun-19 10:30N 50°50' E 006°59'1219910.9
2018-Jun-19 10:30N 52°23' E 004°55'0 0.0
2018-Jun-19 10:01N 52°23' E 004°55'12071997.0
2018-Jun-19 10:00N 50°52' E 007°01'2 3.2
2018-Jun-19 09:30N 50°54' E 007°01'119213326.9
2018-Jun-19 09:30N 52°23' E 004°55'0 0.0
2018-Jun-19 09:00N 52°23' E 004°55'11583058.3
2018-Jun-19 09:00N 50°56' E 006°58'1127622.4
2018-Jun-19 09:00N 52°18' E 004°54'5 9.9 280 / 101024.010.8 18.1 20.5
2018-Jun-19 08:30N 52°23' E 004°55'11569193.5
2018-Jun-19 08:30N 50°56' E 006°58'115231.4
2018-Jun-19 08:00N 52°23' E 004°55'11515967.7
2018-Jun-19 08:00N 50°56' E 006°58'11212238.1
2018-Jun-19 08:00N 52°18' E 004°54'5 9.8 250 / 121023.0 5.4 18.7 20.5
2018-Jun-19 07:30N 52°23' E 004°55'11569190.1
2018-Jun-19 07:30N 50°56' E 006°58'115231.4
2018-Jun-19 07:00N 52°23' E 004°55'11525859.6
2018-Jun-19 07:00N 50°58' E 006°60'3 6.1
2018-Jun-19 06:30N 51°01' E 006°58'11280754.1
2018-Jun-19 06:30N 52°23' E 004°55'0 0.0
2018-Jun-19 06:01N 52°23' E 004°55'10948995.5
2018-Jun-19 06:00N 51°03' E 006°55'109218.7
2018-Jun-19 05:31N 52°23' E 004°55'10647644.7
2018-Jun-19 05:30N 51°05' E 006°51'106212.7
2018-Jun-19 05:01N 52°23' E 004°55'10423370.3
2018-Jun-19 05:00N 51°08' E 006°51'104208.9
2018-Jun-19 04:30N 52°23' E 004°55'0 0.0
2018-Jun-19 04:00N 52°23' E 004°55'100359793.9
2018-Jun-19 04:00N 51°11' E 006°47'100200.7
2018-Jun-19 03:31N 52°23' E 004°55'9750096.6
2018-Jun-19 03:30N 51°12' E 006°44'97194.9
2018-Jun-19 03:01N 52°23' E 004°56'9758240.1
2018-Jun-19 03:00N 51°14' E 006°46'99199.7
2018-Jun-19 02:31N 52°24' E 004°53'993437.2
2018-Jun-19 02:29N 51°14' E 006°46'102217.0
2018-Jun-19 02:01N 52°25' E 004°48'1023507.6
2018-Jun-19 01:59N 51°14' E 006°46'105223.9
2018-Jun-19 01:31N 52°26' E 004°42'1053685.2
2018-Jun-19 01:29N 51°14' E 006°46'109230.5
2018-Jun-19 01:01N 52°28' E 004°37'1093797.0
2018-Jun-19 00:59N 51°14' E 006°46'109230.3
2018-Jun-19 00:30N 52°28' E 004°37'109856.4
2018-Jun-19 00:23N 51°14' E 006°46'110295.1
2018-Jun-19 00:00N 52°28' E 004°35'110333.2
2018-Jun-18 23:41N 51°14' E 006°46'112653.6
2018-Jun-18 23:31N 52°28' E 004°31'1123828.0
2018-Jun-18 23:29N 51°14' E 006°46'115244.0
2018-Jun-18 23:00N 52°28' E 004°24'1154017.9
2018-Jun-18 22:59N 51°14' E 006°46'120254.0
2018-Jun-18 22:30N 52°29' E 004°15'510.9
2018-Jun-18 22:00N 52°29' E 004°06'124542.9
2018-Jun-18 21:47N 51°14' E 006°46'127466.8
2018-Jun-18 21:30N 52°27' E 003°57'127388.1
2018-Jun-18 21:11N 51°14' E 006°46'131748.8
2018-Jun-18 21:00N 52°25' E 003°48'1315360.4
2018-Jun-18 20:59N 51°14' E 006°46'0 0.0
2018-Jun-18 20:30N 51°14' E 006°46'13548681.7
2018-Jun-18 20:30N 52°24' E 003°39'611.3
2018-Jun-18 20:00N 52°21' E 003°31'136122312.5
2018-Jun-18 20:00N 51°15' E 006°44'138277.1
2018-Jun-18 19:30N 52°17' E 003°24'140252520.1
2018-Jun-18 19:30N 51°14' E 006°46'3 5.9
2018-Jun-18 19:01N 51°11' E 006°44'143171467.4
2018-Jun-18 19:00N 52°14' E 003°17'144288.5
2018-Jun-18 18:31N 51°11' E 006°45'1477644.2
2018-Jun-18 18:29N 52°10' E 003°09'145300.2
2018-Jun-18 18:00N 51°13' E 006°44'1476027.1
2018-Jun-18 17:59N 52°06' E 003°02'148311.4
2018-Jun-18 17:30N 51°13' E 006°46'151885.9
2018-Jun-18 17:20N 51°60' E 002°55'151456.6
2018-Jun-18 17:00N 51°14' E 006°46'15217705.3
2018-Jun-18 17:00N 51°56' E 002°50'152310.4
2018-Jun-18 16:30N 51°14' E 006°46'155111772.3
2018-Jun-18 16:30N 51°52' E 002°44'612.2
2018-Jun-18 16:01N 51°47' E 002°38'15871225.5
2018-Jun-18 16:00N 51°14' E 006°46'34823611.2
2018-Jun-18 16:00N 51°42' W 002°30'348716.7 210 / 281020.0 5.4 16.4 14.8
2018-Jun-18 15:30N 51°14' E 006°46'16241538.4
2018-Jun-18 15:30N 51°43' E 002°31'612.3
2018-Jun-18 15:00N 51°38' E 002°24'165148464.4
2018-Jun-18 15:00N 51°14' E 006°46'34022263.0
2018-Jun-18 15:00N 51°30' W 002°18'172354.7 230 / 241020.0 5.4 16.4 14.8
2018-Jun-18 14:30N 51°33' E 002°18'169151800.9
2018-Jun-18 14:30N 51°14' E 006°46'172345.9
2018-Jun-18 14:01N 51°29' E 002°11'171615319.9
2018-Jun-18 14:01N 51°13' E 006°44'175349.8
2018-Jun-18 13:31N 51°24' E 002°05'17958418.4
2018-Jun-18 13:30N 51°09' E 006°49'182366.7
2018-Jun-18 13:01N 51°19' E 001°58'185166095.0
2018-Jun-18 13:00N 51°06' E 006°52'189377.9
2018-Jun-18 12:31N 51°15' E 001°52'19399303.5
2018-Jun-18 12:30N 51°01' E 006°58'5 9.7
2018-Jun-18 12:01N 50°56' E 006°58'201399.8
2018-Jun-18 11:30N 51°05' E 001°39'612.0
2018-Jun-18 11:01N 51°01' E 001°33'1156897.1
2018-Jun-18 11:00N 51°00' W 001°30'112230.7 230 / 201022.0 2.2 16.016.014.0
2018-Jun-18 10:30N 50°56' E 001°27'611.8
2018-Jun-18 10:01N 50°50' E 001°23'611.8
2018-Jun-18 09:31N 50°45' E 001°22'611.6
2018-Jun-18 09:00N 50°40' E 001°16'945714.7
2018-Jun-18 09:00N 50°36' W 001°12'89184.5 240 / 201022.0 2.2 15.0 14.0
2018-Jun-18 08:30N 50°36' E 001°09'611.8
2018-Jun-18 08:00N 50°32' E 001°01'611.9
2018-Jun-18 07:30N 50°29' E 000°54'611.9
2018-Jun-18 07:01N 50°27' E 000°45'912.0
2018-Jun-18 06:16N 50°24' E 000°32'2488.8
2018-Jun-18 06:00N 50°12' E 000°00'19118.2 240 / 251020.0 5.4 22.0 13.4
2018-Jun-18 05:50N 50°22' E 000°24'411.9
2018-Jun-18 05:29N 50°21' E 000°18'611.8
2018-Jun-18 05:01N 50°19' E 000°10'10581.6
2018-Jun-18 05:00N 50°12' E 000°00'611.4 240 / 251020.0 5.4 22.0 13.4
2018-Jun-18 04:31N 50°17' E 000°01'611.8
2018-Jun-18 04:01N 50°16' W 000°08'611.9
2018-Jun-18 03:30N 50°14' W 000°17'611.7
2018-Jun-18 03:00N 50°12' W 000°25'7578.9
2018-Jun-18 03:00N 50°06' W 000°30'5 9.9 240 / 251020.0 22.0 13.4
2018-Jun-18 02:31N 50°10' W 000°34'611.9
2018-Jun-18 02:01N 50°08' W 000°43'4243.1
2018-Jun-18 02:00N 50°06' W 000°48'2 4.8 230 / 221020.0 0.5 14.014.013.0
2018-Jun-18 01:28N 50°06' W 000°52'5112.0
2018-Jun-17 21:13N 49°45' W 002°04'315.5
2018-Jun-17 21:00N 49°42' W 002°05'64007.1
2018-Jun-17 21:00N 49°36' W 002°06'2 3.4 230 / 18 15.1 14.1
2018-Jun-17 20:30N 49°36' W 002°08'612.4
2018-Jun-17 20:00N 49°30' W 002°12'7492.0
2018-Jun-17 20:00N 49°24' W 002°06'612.9 230 / 171020.0 5.4 16.2 14.2
2018-Jun-17 19:30N 49°24' W 002°16'366760.4
2018-Jun-17 19:01N 50°56' E 006°58'0 0.0
2018-Jun-17 19:00N 50°56' E 006°58'37233458.6
2018-Jun-17 19:00N 49°23' W 002°24'372761.6
2018-Jun-17 18:30N 50°54' E 006°59'37533734.0
2018-Jun-17 18:30N 49°27' W 002°30'374765.1
2018-Jun-17 18:00N 50°56' E 006°58'374673590.5
2018-Jun-17 18:00N 49°28' W 002°30'375751.6
2018-Jun-17 17:30N 50°58' E 006°59'37532172.8
2018-Jun-17 17:30N 49°28' W 002°30'0 0.0
2018-Jun-17 17:00N 49°28' W 002°30'37474852.9
2018-Jun-17 17:00N 50°55' E 006°58'4 7.7
2018-Jun-17 16:31N 50°52' E 007°02'37626059.1
2018-Jun-17 16:30N 49°28' W 002°30'377775.8
2018-Jun-17 16:01N 50°53' E 007°03'37745231.0
2018-Jun-17 16:00N 49°28' W 002°30'375764.0
2018-Jun-17 15:31N 50°54' E 007°00'37525492.5
2018-Jun-17 15:30N 49°28' W 002°30'374771.0
2018-Jun-17 15:01N 50°56' E 006°58'37420414.1
2018-Jun-17 14:59N 49°28' W 002°30'0 0.1
2018-Jun-17 14:28N 49°28' W 002°30'0 0.2
2018-Jun-17 13:59N 49°28' W 002°30'0 0.2
2018-Jun-17 13:30N 49°28' W 002°30'0 0.1
2018-Jun-17 13:00N 49°28' W 002°30'0 0.1
2018-Jun-17 12:28N 49°28' W 002°30'0 0.1
2018-Jun-17 11:59N 49°28' W 002°30'0 0.0
2018-Jun-17 11:30N 49°28' W 002°30'0 0.0
2018-Jun-17 11:00N 49°28' W 002°30'0 0.0
2018-Jun-17 10:29N 49°28' W 002°30'0 0.0
2018-Jun-17 10:00N 49°28' W 002°30'4280.9
2018-Jun-17 10:00N 49°24' W 002°30'4 7.5 1019.0 5.4 16.2 13.8
2018-Jun-17 09:30N 49°28' W 002°30'0 0.2
2018-Jun-17 08:59N 49°28' W 002°30'0 0.2
2018-Jun-17 08:30N 49°28' W 002°30'1 2.4
2018-Jun-17 08:00N 49°27' W 002°30'611.9
2018-Jun-17 07:30N 49°23' W 002°37'917.8
2018-Jun-17 07:00N 49°24' W 002°50'916.8
2018-Jun-17 06:28N 49°26' W 003°04'115243.0
2018-Jun-17 06:00N 49°24' W 006°00'1064268.6 260 / 181019.0 5.4 14.0 14.4
2018-Jun-17 05:58N 49°29' W 003°18'1019.3
2018-Jun-17 05:28N 49°31' W 003°32'131273.5
2018-Jun-17 05:00N 49°30' W 006°54'106131.4 230 / 191019.0 5.4 14.3 14.4
2018-Jun-17 04:11N 49°37' W 004°10'619.4
2018-Jun-17 03:53N 49°38' W 004°19'8 8.4
2018-Jun-17 03:00N 49°36' W 004°30'2533.6 270 / 231019.0 5.4 13.0 15.9
2018-Jun-17 02:14N 49°45' W 005°06'418.7
2018-Jun-17 02:00N 49°46' W 005°13'1418.6
2018-Jun-17 01:15N 49°49' W 005°34'519.5
2018-Jun-17 01:00N 49°48' W 005°42'2418.4 260 / 201020.0 5.4 15.015.015.0
2018-Jun-16 23:41N 50°09' W 005°59'420.8
2018-Jun-16 23:29N 50°14' W 005°59'4618.6
2018-Jun-16 21:00N 50°48' W 006°48'521316.5 290 / 201017.0 5.4 15.0 15.3
2018-Jun-16 19:21N 50°56' E 006°58'1 3.4
2018-Jun-16 19:01N 50°57' E 006°59'54932958.6
2018-Jun-16 19:00N 51°18' W 007°36'311.9 280 / 281015.0 5.4 13.4 13.8
2018-Jun-16 18:46N 51°20' W 007°38'5512169.6
2018-Jun-16 18:31N 50°55' E 006°58'5541995423.4
2018-Jun-16 18:31N 51°24' W 007°44'1020.1
2018-Jun-16 18:01N 51°31' W 007°55'5612018932.4
2018-Jun-16 18:01N 50°56' E 006°58'56734033.0
2018-Jun-16 18:00N 51°36' W 008°06'5671172.8 250 / 311014.0 5.4 13.4 13.8
2018-Jun-16 17:31N 50°56' E 006°58'568408628.3
2018-Jun-16 17:30N 51°38' W 008°07'5681138.2
2018-Jun-16 17:01N 50°56' E 006°58'57252820.7
2018-Jun-16 17:00N 51°46' W 008°15'5721169.8
2018-Jun-16 16:31N 50°56' E 006°58'573147240.9
2018-Jun-16 16:30N 51°51' W 008°16'5731154.8
2018-Jun-16 16:01N 50°56' E 006°58'57425510.5
2018-Jun-16 15:59N 51°51' W 008°18'5761205.1
2018-Jun-16 15:30N 50°54' E 007°00'57626590.2
2018-Jun-16 15:29N 51°51' W 008°18'5761205.2
2018-Jun-16 15:01N 50°50' E 006°59'57625592.3
2018-Jun-16 14:59N 51°51' W 008°18'5801214.8
2018-Jun-16 14:31N 50°46' E 007°05'58026448.8
2018-Jun-16 14:29N 51°51' W 008°18'5841222.2
2018-Jun-16 14:01N 50°43' E 007°10'58426292.6
2018-Jun-16 13:59N 51°51' W 008°18'5871227.1
2018-Jun-16 13:30N 50°39' E 007°13'58727441.5
2018-Jun-16 13:29N 51°51' W 008°18'0 0.0
2018-Jun-16 12:59N 51°51' W 008°18'5908893.4
2018-Jun-16 12:55N 50°34' E 007°16'2 4.3
2018-Jun-16 12:30N 50°35' E 007°14'58934740.5
2018-Jun-16 12:29N 51°51' W 008°18'5871189.6
2018-Jun-16 12:00N 50°38' E 007°13'58796084.9
2018-Jun-16 11:59N 51°51' W 008°18'5861219.8
2018-Jun-16 11:30N 50°40' E 007°11'58629705.3
2018-Jun-16 11:29N 51°51' W 008°18'5851217.0
2018-Jun-16 11:00N 50°42' E 007°10'58529225.2
2018-Jun-16 10:59N 51°51' W 008°18'5821191.7
2018-Jun-16 10:30N 50°44' E 007°07'58249880.1
2018-Jun-16 10:29N 51°51' W 008°18'5801201.2
2018-Jun-16 10:00N 50°46' E 007°04'58033671.6
2018-Jun-16 09:59N 51°51' W 008°18'5781203.1
2018-Jun-16 09:30N 50°49' E 007°02'57829297.8
2018-Jun-16 09:29N 51°51' W 008°18'5761192.8
2018-Jun-16 09:00N 50°51' E 006°59'57633983.7
2018-Jun-16 08:59N 51°51' W 008°18'5781203.3
2018-Jun-16 08:30N 50°53' E 007°03'57816778.3
2018-Jun-16 08:28N 51°51' W 008°18'5761236.7
2018-Jun-16 08:00N 50°54' E 006°60'57616714.9
2018-Jun-16 07:58N 51°51' W 008°18'5741232.2
2018-Jun-16 07:30N 50°56' E 006°58'57412084.0
2018-Jun-16 07:28N 51°51' W 008°18'0 0.0
2018-Jun-16 07:00N 51°51' W 008°18'0 0.0
2018-Jun-16 06:31N 51°51' W 008°18'0 0.0
2018-Jun-16 06:01N 51°51' W 008°18'0 0.0
2018-Jun-16 05:31N 51°51' W 008°18'1 2.2
2018-Jun-16 05:01N 51°51' W 008°16'511.0
2018-Jun-16 04:31N 51°45' W 008°15'4 8.7
2018-Jun-16 04:01N 51°43' W 008°09'4 9.0
2018-Jun-16 03:31N 51°42' W 008°02'4 8.6
2018-Jun-16 03:01N 51°40' W 007°56'4256.0
2018-Jun-16 03:00N 51°36' W 007°54'4 7.9 190 / 261011.0 5.4 12.0 13.7
2018-Jun-16 02:31N 51°39' W 007°50'4 8.6
2018-Jun-16 02:00N 51°37' W 007°43'4 8.6
2018-Jun-16 01:31N 51°36' W 007°36'4 8.6
2018-Jun-16 01:01N 51°35' W 007°29'139.7
2018-Jun-16 01:00N 51°36' W 007°30'5 9.7 210 / 301013.0 5.4 15.015.015.5
2018-Jun-16 00:30N 51°35' W 007°23'4 8.2
2018-Jun-16 00:01N 51°34' W 007°16'4 8.6
2018-Jun-15 23:30N 51°32' W 007°10'4 8.7
2018-Jun-15 23:00N 51°31' W 007°03'13 7.5
2018-Jun-15 21:18N 51°43' W 006°56'3 8.8
2018-Jun-15 21:01N 51°45' W 006°59'5 8.9
2018-Jun-15 20:30N 51°49' W 007°03'5271129.0
2018-Jun-15 20:02N 50°56' E 006°58'0 0.0
2018-Jun-15 20:00N 50°56' E 006°58'5289003.2
2018-Jun-15 19:57N 51°54' W 007°03'5281203.0
2018-Jun-15 19:31N 50°58' E 006°59'4 7.9
2018-Jun-15 19:00N 50°54' E 007°00'2 3.5
2018-Jun-15 18:30N 50°52' E 007°02'1 2.8
2018-Jun-15 18:00N 50°54' E 007°02'2 4.0
2018-Jun-15 17:30N 50°54' E 006°59'2 4.6
2018-Jun-15 17:00N 50°56' E 006°58'52265.2
2018-Jun-15 09:00N 52°06' W 006°54'2 0.3 230 / 171017.010.8 16.4 13.9
2018-Jun-15 03:56N 52°05' W 006°55'510.6
2018-Jun-15 03:31N 52°03' W 006°48'610.8
2018-Jun-15 02:59N 52°01' W 006°40'510.3
2018-Jun-15 02:30N 52°03' W 006°32'510.4
2018-Jun-15 02:01N 52°05' W 006°24'510.5
2018-Jun-15 01:31N 52°07' W 006°16'5 9.9
2018-Jun-15 01:01N 52°10' W 006°10'4257.8
2018-Jun-15 01:00N 52°06' W 006°06'817.3 280 / 301017.0 2.2 14.014.013.0
2018-Jun-15 00:31N 52°14' W 006°06'  

Dump ship's entire track history